createdAt,value
2022-12-24T00:01:05.844Z,15.35
2022-12-24T00:03:33.748Z,14.05
2022-12-24T00:06:16.576Z,18.92
2022-12-24T00:08:43.725Z,13.77
2022-12-24T00:11:10.968Z,11.23
2022-12-24T00:13:38.188Z,14.70
2022-12-24T00:16:06.026Z,17.40
2022-12-24T00:18:33.207Z,19.70
2022-12-24T00:21:02.015Z,15.73
2022-12-24T00:23:31.977Z,15.50
2022-12-24T00:25:59.058Z,15.77
2022-12-24T00:28:26.073Z,16.75
2022-12-24T00:30:53.246Z,15.80
2022-12-24T00:33:24.695Z,17.48
2022-12-24T00:35:54.739Z,15.85
2022-12-24T00:38:21.875Z,18.58
2022-12-24T00:40:48.986Z,15.70
2022-12-24T00:43:16.114Z,16.70
2022-12-24T00:45:43.189Z,16.23
2022-12-24T00:48:10.261Z,18.20
2022-12-24T00:50:37.324Z,12.10
2022-12-24T00:53:04.760Z,13.93
2022-12-24T00:55:32.308Z,11.95
2022-12-24T00:57:59.413Z,14.32
2022-12-24T01:00:26.507Z,20.27
2022-12-24T01:02:53.688Z,16.00
2022-12-24T01:05:21.177Z,11.48
2022-12-24T01:07:48.416Z,21.40
2022-12-24T01:10:18.936Z,16.88
2022-12-24T01:12:46.995Z,13.40
2022-12-24T01:15:14.898Z,15.10
2022-12-24T01:17:42.047Z,13.48
2022-12-24T01:20:13.326Z,12.85
2022-12-24T01:22:40.453Z,16.35
2022-12-24T01:25:07.948Z,11.57
2022-12-24T01:27:35.074Z,12.88
2022-12-24T01:30:02.233Z,17.40
2022-12-24T01:32:29.325Z,18.42
2022-12-24T01:34:56.416Z,15.73
2022-12-24T01:37:23.923Z,14.60
2022-12-24T01:39:50.965Z,12.07
2022-12-24T01:42:41.332Z,12.05
2022-12-24T01:45:47.014Z,12.73
2022-12-24T01:48:37.881Z,11.48
2022-12-24T01:51:28.129Z,15.63
2022-12-24T01:54:11.389Z,12.18
2022-12-24T01:56:45.154Z,14.05
2022-12-24T01:59:16.477Z,12.48
2022-12-24T02:01:43.883Z,19.05
2022-12-24T02:04:33.773Z,11.27
2022-12-24T02:07:01.247Z,12.90
2022-12-24T02:09:29.261Z,12.63
2022-12-24T02:11:57.097Z,13.30
2022-12-24T02:14:26.596Z,11.57
2022-12-24T02:16:53.617Z,13.45
2022-12-24T02:19:51.550Z,10.93
2022-12-24T02:22:49.447Z,10.93
2022-12-24T02:25:22.515Z,9.43
2022-12-24T02:28:15.360Z,11.65
2022-12-24T02:30:47.853Z,11.43
2022-12-24T02:33:20.696Z,9.02
2022-12-24T02:35:55.247Z,10.00
2022-12-24T02:41:00.511Z,9.63
2022-12-24T02:43:35.743Z,10.77
2022-12-24T02:46:11.959Z,9.07
2022-12-24T02:48:42.812Z,9.32
2022-12-24T02:51:11.499Z,15.88
2022-12-24T02:53:38.994Z,11.00
2022-12-24T02:56:26.399Z,10.00
2022-12-24T02:59:22.601Z,12.05
2022-12-24T03:02:10.026Z,15.00
2022-12-24T03:05:15.525Z,11.02
2022-12-24T03:10:32.553Z,9.70
2022-12-24T03:13:29.411Z,10.50
2022-12-24T03:15:56.629Z,9.23
2022-12-24T03:18:26.261Z,7.57
2022-12-24T03:20:59.241Z,11.77
2022-12-24T03:23:26.381Z,8.25
2022-12-24T03:25:53.852Z,9.90
2022-12-24T03:28:26.319Z,8.32
2022-12-24T03:30:53.570Z,10.40
2022-12-24T03:33:20.837Z,10.18
2022-12-24T03:35:48.015Z,7.80
2022-12-24T03:38:15.121Z,8.45
2022-12-24T03:40:42.225Z,8.65
2022-12-24T03:43:09.323Z,8.98
2022-12-24T03:45:36.474Z,7.45
2022-12-24T03:48:03.764Z,11.27
2022-12-24T03:50:30.947Z,10.05
2022-12-24T03:52:57.984Z,9.88
2022-12-24T03:55:25.110Z,6.82
2022-12-24T03:57:52.218Z,5.35
2022-12-24T04:00:19.823Z,3.35
2022-12-24T04:02:47.061Z,3.08
2022-12-24T04:05:17.503Z,3.97
2022-12-24T04:07:45.282Z,3.88
2022-12-24T04:10:12.603Z,4.32
2022-12-24T04:12:40.011Z,4.13
2022-12-24T04:15:10.205Z,4.13
2022-12-24T04:17:37.371Z,4.40
2022-12-24T04:20:04.765Z,3.83
2022-12-24T04:22:32.673Z,4.97
2022-12-24T04:24:59.724Z,5.22
2022-12-24T04:27:30.430Z,5.45
2022-12-24T04:29:58.070Z,5.15
2022-12-24T04:32:27.029Z,5.60
2022-12-24T04:34:54.233Z,4.60
2022-12-24T04:37:21.386Z,5.30
2022-12-24T04:39:48.457Z,5.03
2022-12-24T04:42:15.632Z,5.00
2022-12-24T04:44:42.685Z,4.70
2022-12-24T04:47:10.880Z,4.80
2022-12-24T04:49:38.073Z,5.05
2022-12-24T04:52:05.843Z,5.57
2022-12-24T04:54:32.984Z,5.50
2022-12-24T04:57:00.181Z,5.72
2022-12-24T04:59:27.399Z,5.28
2022-12-24T05:01:54.623Z,5.32
2022-12-24T05:04:21.830Z,5.05
2022-12-24T05:06:48.892Z,4.50
2022-12-24T05:09:15.937Z,3.70
2022-12-24T05:11:43.041Z,3.75
2022-12-24T05:14:10.149Z,3.80
2022-12-24T05:16:38.813Z,3.78
2022-12-24T05:19:06.028Z,3.78
2022-12-24T05:21:33.105Z,3.60
2022-12-24T05:24:18.530Z,3.75
2022-12-24T05:26:57.318Z,4.60
2022-12-24T05:29:24.843Z,3.50
2022-12-24T05:31:51.892Z,3.88
2022-12-24T05:34:19.202Z,4.57
2022-12-24T05:36:46.424Z,4.43
2022-12-24T05:39:18.138Z,3.70
2022-12-24T05:41:45.945Z,4.10
2022-12-24T05:44:13.909Z,4.35
2022-12-24T05:46:41.058Z,4.28
2022-12-24T05:49:08.734Z,4.13
2022-12-24T05:51:35.837Z,3.55
2022-12-24T05:54:03.081Z,4.68
2022-12-24T05:56:30.149Z,3.50
2022-12-24T05:58:58.151Z,3.65
2022-12-24T06:01:26.159Z,2.85
2022-12-24T06:03:53.733Z,2.47
2022-12-24T06:06:23.797Z,3.20
2022-12-24T06:08:52.443Z,2.83
2022-12-24T06:11:22.263Z,2.85
2022-12-24T06:13:50.233Z,2.63
2022-12-24T06:16:19.600Z,2.85
2022-12-24T06:18:47.243Z,3.28
2022-12-24T06:21:15.495Z,3.20
2022-12-24T06:23:44.567Z,2.63
2022-12-24T06:26:17.280Z,2.85
2022-12-24T06:28:45.241Z,2.53
2022-12-24T06:31:14.571Z,2.80
2022-12-24T06:33:41.719Z,2.45
2022-12-24T06:36:26.118Z,2.85
2022-12-24T06:38:54.855Z,2.60
2022-12-24T06:41:22.175Z,3.30
2022-12-24T06:43:51.432Z,2.30
2022-12-24T06:46:19.151Z,3.03
2022-12-24T06:48:47.173Z,2.97
2022-12-24T06:51:16.623Z,3.33
2022-12-24T06:53:43.672Z,3.13
2022-12-24T06:56:14.033Z,3.25
2022-12-24T06:58:41.992Z,3.00
2022-12-24T07:01:12.136Z,2.50
2022-12-24T07:03:39.856Z,2.63
2022-12-24T07:06:08.076Z,2.72
2022-12-24T07:08:36.526Z,2.70
2022-12-24T07:11:04.844Z,2.45
2022-12-24T07:13:35.409Z,3.28
2022-12-24T07:16:05.433Z,4.22
2022-12-24T07:18:33.258Z,4.32
2022-12-24T07:21:01.664Z,3.30
2022-12-24T07:23:29.237Z,4.05
2022-12-24T07:25:56.303Z,5.30
2022-12-24T07:28:27.818Z,4.47
2022-12-24T07:30:56.336Z,5.72
2022-12-24T07:33:24.675Z,3.75
2022-12-24T07:36:02.685Z,4.18
2022-12-24T07:38:30.788Z,3.30
2022-12-24T07:40:58.968Z,3.03
2022-12-24T07:43:27.086Z,2.83
2022-12-24T07:45:58.265Z,2.50
2022-12-24T07:48:27.118Z,2.33
2022-12-24T07:50:54.717Z,2.17
2022-12-24T07:53:22.044Z,1.95
2022-12-24T07:55:49.773Z,2.78
2022-12-24T07:58:17.137Z,2.75
2022-12-24T08:00:44.439Z,3.40
2022-12-24T08:03:19.466Z,3.40
2022-12-24T08:05:47.499Z,4.10
2022-12-24T08:08:15.223Z,4.40
2022-12-24T08:10:44.592Z,4.45
2022-12-24T08:13:12.469Z,4.43
2022-12-24T08:15:39.618Z,4.00
2022-12-24T08:18:06.772Z,4.03
2022-12-24T08:20:33.970Z,4.57
2022-12-24T08:23:01.092Z,4.97
2022-12-24T08:25:28.211Z,4.57
2022-12-24T08:27:55.224Z,5.07
2022-12-24T08:30:22.270Z,5.00
2022-12-24T08:32:49.570Z,6.10
2022-12-24T08:35:17.113Z,6.55
2022-12-24T08:37:44.198Z,6.22
2022-12-24T08:40:12.618Z,7.45
2022-12-24T08:42:39.745Z,8.07
2022-12-24T08:45:07.528Z,8.52
2022-12-24T08:47:34.562Z,8.35
2022-12-24T08:50:01.631Z,8.43
2022-12-24T08:52:28.763Z,10.70
2022-12-24T08:54:55.842Z,11.65
2022-12-24T08:57:22.963Z,12.98
2022-12-24T08:59:50.013Z,10.98
2022-12-24T09:02:17.343Z,13.15
2022-12-24T09:04:44.501Z,14.68
2022-12-24T09:07:11.634Z,13.35
2022-12-24T09:09:38.792Z,17.17
2022-12-24T09:12:06.849Z,15.05
2022-12-24T09:14:34.470Z,15.75
2022-12-24T09:17:01.594Z,12.45
2022-12-24T09:19:28.992Z,14.30
2022-12-24T09:21:56.044Z,13.38
2022-12-24T09:24:23.163Z,14.48
2022-12-24T09:26:57.247Z,12.88
2022-12-24T09:29:24.867Z,16.65
2022-12-24T09:31:52.020Z,13.25
2022-12-24T09:34:19.137Z,13.25
2022-12-24T09:36:46.674Z,14.10
2022-12-24T09:39:14.510Z,15.10
2022-12-24T09:42:02.861Z,13.07
2022-12-24T09:45:02.668Z,13.07
2022-12-24T09:47:45.233Z,13.85
2022-12-24T09:50:40.402Z,11.30
2022-12-24T09:53:21.785Z,12.27
2022-12-24T09:55:59.392Z,16.15
2022-12-24T09:58:35.536Z,14.27
2022-12-24T10:01:02.847Z,15.30
2022-12-24T10:03:30.943Z,13.38
2022-12-24T10:06:16.089Z,17.77
2022-12-24T10:08:46.022Z,17.02
2022-12-24T10:11:40.311Z,17.70
2022-12-24T10:14:18.144Z,14.93
2022-12-24T10:17:19.173Z,13.40
2022-12-24T10:20:10.985Z,16.05
2022-12-24T10:22:46.750Z,11.75
2022-12-24T10:25:21.928Z,12.07
2022-12-24T10:27:49.378Z,12.82
2022-12-24T10:30:19.859Z,13.20
2022-12-24T10:32:52.227Z,17.23
2022-12-24T10:35:42.655Z,12.95
2022-12-24T10:38:09.888Z,14.77
2022-12-24T10:40:47.571Z,18.08
2022-12-24T10:43:23.566Z,18.13
2022-12-24T10:46:03.442Z,14.90
2022-12-24T10:49:14.633Z,18.88
2022-12-24T10:51:54.386Z,20.60
2022-12-24T10:54:27.480Z,22.33
2022-12-24T10:56:58.903Z,23.95
2022-12-24T10:59:49.541Z,18.33
2022-12-24T11:02:47.204Z,17.15
2022-12-24T11:05:29.895Z,14.95
2022-12-24T11:08:13.358Z,15.95
2022-12-24T11:10:53.971Z,17.17
2022-12-24T11:13:37.456Z,13.25
2022-12-24T11:16:17.799Z,12.32
2022-12-24T11:18:51.713Z,10.68
2022-12-24T11:23:56.228Z,11.13
2022-12-24T11:26:25.503Z,10.60
2022-12-24T11:29:17.246Z,10.38
2022-12-24T11:31:45.525Z,10.82
2022-12-24T11:34:22.645Z,12.38
2022-12-24T11:36:51.409Z,11.13
2022-12-24T11:39:24.805Z,12.02
2022-12-24T11:41:54.245Z,14.65
2022-12-24T11:44:27.240Z,12.27
2022-12-24T11:46:59.044Z,9.68
2022-12-24T11:49:31.791Z,9.82
2022-12-24T11:52:11.083Z,11.57
2022-12-24T11:55:05.635Z,8.68
2022-12-24T11:58:06.503Z,9.95
2022-12-24T12:00:33.708Z,8.93
2022-12-24T12:03:04.530Z,9.35
2022-12-24T12:05:36.199Z,8.13
2022-12-24T12:08:18.273Z,8.90
2022-12-24T12:10:46.895Z,8.18
2022-12-24T12:13:18.703Z,7.82
2022-12-24T12:15:54.681Z,8.02
2022-12-24T12:18:34.559Z,7.28
2022-12-24T12:21:07.721Z,6.43
2022-12-24T12:23:49.500Z,6.75
2022-12-24T12:26:25.756Z,7.32
2022-12-24T12:29:11.410Z,6.90
2022-12-24T12:31:57.635Z,6.85
2022-12-24T12:34:27.461Z,6.72
2022-12-24T12:37:14.834Z,5.10
2022-12-24T12:39:42.635Z,5.68
2022-12-24T12:42:18.772Z,5.45
2022-12-24T12:45:17.221Z,5.22
2022-12-24T12:48:01.305Z,5.80
2022-12-24T12:50:55.297Z,6.03
2022-12-24T12:53:29.158Z,5.13
2022-12-24T12:56:05.987Z,5.68
2022-12-24T12:58:55.241Z,5.03
2022-12-24T13:01:55.458Z,6.10
2022-12-24T13:04:53.212Z,6.45
2022-12-24T13:07:39.188Z,5.43
2022-12-24T13:10:13.865Z,5.78
2022-12-24T13:13:20.542Z,5.40
2022-12-24T13:16:15.738Z,5.93
2022-12-24T13:19:08.565Z,5.03
2022-12-24T13:21:35.880Z,5.07
2022-12-24T13:24:07.061Z,4.43
2022-12-24T13:26:34.410Z,5.43
2022-12-24T13:29:36.276Z,4.80
2022-12-24T13:32:21.671Z,5.10
2022-12-24T13:34:57.991Z,5.85
2022-12-24T13:37:30.977Z,6.63
2022-12-24T13:40:06.884Z,6.70
2022-12-24T13:42:59.224Z,5.07
2022-12-24T13:45:29.776Z,5.03
2022-12-24T13:48:06.134Z,5.07
2022-12-24T13:50:44.532Z,5.82
2022-12-24T13:53:30.377Z,4.78
2022-12-24T13:56:04.445Z,6.05
2022-12-24T13:58:31.994Z,5.53
2022-12-24T14:01:06.552Z,5.10
2022-12-24T14:03:44.168Z,4.88
2022-12-24T14:06:21.148Z,5.05
2022-12-24T14:08:51.780Z,5.70
2022-12-24T14:11:24.620Z,5.40
2022-12-24T14:14:12.694Z,5.53
2022-12-24T14:16:51.668Z,5.90
2022-12-24T14:19:25.442Z,6.82
2022-12-24T14:21:59.206Z,6.47
2022-12-24T14:24:33.182Z,6.45
2022-12-24T14:27:20.497Z,6.10
2022-12-24T14:29:52.869Z,5.90
2022-12-24T14:32:19.978Z,5.15
2022-12-24T14:34:47.056Z,5.82
2022-12-24T14:37:14.585Z,5.63
2022-12-24T14:39:46.484Z,6.57
2022-12-24T14:42:50.902Z,5.13
2022-12-24T14:45:23.954Z,5.00
2022-12-24T14:47:56.952Z,4.60
2022-12-24T14:50:42.616Z,6.18
2022-12-24T14:53:31.218Z,6.43
2022-12-24T14:55:58.410Z,4.80
2022-12-24T14:58:40.262Z,5.85
2022-12-24T15:01:27.516Z,5.70
2022-12-24T15:04:09.922Z,5.78
2022-12-24T15:06:44.664Z,7.30
2022-12-24T15:09:25.252Z,7.18
2022-12-24T15:11:55.238Z,8.15
2022-12-24T15:14:25.128Z,7.10
2022-12-24T15:16:59.714Z,6.57
2022-12-24T15:19:32.061Z,7.05
2022-12-24T15:21:59.660Z,7.55
2022-12-24T15:24:32.624Z,6.82
2022-12-24T15:27:03.061Z,7.25
2022-12-24T15:29:32.901Z,7.28
2022-12-24T15:32:01.794Z,10.77
2022-12-24T15:34:39.649Z,8.63
2022-12-24T15:37:21.291Z,9.13
2022-12-24T15:40:00.479Z,7.88
2022-12-24T15:42:28.502Z,10.30
2022-12-24T15:45:03.071Z,12.77
2022-12-24T15:47:44.426Z,9.35
2022-12-24T15:50:30.303Z,9.90
2022-12-24T15:53:20.753Z,9.75
2022-12-24T15:56:11.280Z,11.15
2022-12-24T15:58:45.680Z,11.38
2022-12-24T16:03:57.267Z,12.65
2022-12-24T16:06:24.658Z,11.77
2022-12-24T16:08:52.110Z,10.00
2022-12-24T16:11:20.510Z,11.82
2022-12-24T16:14:17.251Z,11.50
2022-12-24T16:16:48.684Z,9.93
2022-12-24T16:19:24.435Z,8.93
2022-12-24T16:21:54.982Z,7.93
2022-12-24T16:24:25.905Z,10.15
2022-12-24T16:26:53.217Z,9.07
2022-12-24T16:29:20.728Z,9.10
2022-12-24T16:31:55.217Z,10.18
2022-12-24T16:34:40.536Z,10.60
2022-12-24T16:37:08.086Z,9.10
2022-12-24T16:39:35.482Z,8.63
2022-12-24T16:42:23.064Z,9.63
2022-12-24T16:44:53.247Z,10.43
2022-12-24T16:47:23.980Z,9.35
2022-12-24T16:49:51.574Z,9.77
2022-12-24T16:52:25.863Z,8.93
2022-12-24T16:54:53.214Z,8.35
2022-12-24T16:57:22.890Z,8.68
2022-12-24T16:59:51.227Z,8.80
2022-12-24T17:02:21.723Z,8.95
2022-12-24T17:04:49.690Z,9.30
2022-12-24T17:07:19.255Z,11.10
2022-12-24T17:09:46.340Z,10.57
2022-12-24T17:12:14.296Z,10.30
2022-12-24T17:14:42.499Z,8.68
2022-12-24T17:17:22.872Z,10.95
2022-12-24T17:19:50.483Z,10.20
2022-12-24T17:22:20.190Z,10.65
2022-12-24T17:24:47.379Z,13.35
2022-12-24T17:27:14.871Z,9.80
2022-12-24T17:29:42.424Z,12.65
2022-12-24T17:32:09.659Z,14.05
2022-12-24T17:34:36.851Z,12.20
2022-12-24T17:37:03.936Z,12.55
2022-12-24T17:39:30.969Z,11.23
2022-12-24T17:41:58.122Z,12.75
2022-12-24T17:44:25.224Z,12.40
2022-12-24T17:46:52.419Z,11.98
2022-12-24T17:49:19.508Z,13.93
2022-12-24T17:51:46.975Z,14.75
2022-12-24T17:54:14.302Z,13.98
2022-12-24T17:56:41.380Z,15.32
2022-12-24T17:59:08.530Z,14.68
2022-12-24T18:01:35.808Z,13.70
2022-12-24T18:04:07.314Z,12.50
2022-12-24T18:06:34.643Z,14.00
2022-12-24T18:09:01.713Z,13.45
2022-12-24T18:11:32.801Z,11.77
2022-12-24T18:14:01.460Z,12.00
2022-12-24T18:16:30.011Z,11.93
2022-12-24T18:18:57.875Z,11.57
2022-12-24T18:21:29.092Z,12.60
2022-12-24T18:23:56.985Z,13.38
2022-12-24T18:26:26.343Z,11.70
2022-12-24T18:28:55.446Z,10.75
2022-12-24T18:31:23.869Z,12.30
2022-12-24T18:33:52.401Z,11.73
2022-12-24T18:36:20.311Z,13.70
2022-12-24T18:38:48.236Z,10.60
2022-12-24T18:41:19.035Z,12.27
2022-12-24T18:43:46.455Z,12.80
2022-12-24T18:46:16.009Z,14.18
2022-12-24T18:48:43.176Z,10.65
2022-12-24T18:51:10.993Z,13.52
2022-12-24T18:53:38.702Z,11.80
2022-12-24T18:56:15.932Z,12.40
2022-12-24T18:58:43.893Z,12.25
2022-12-24T19:01:37.269Z,16.33
2022-12-24T19:04:04.655Z,15.32
2022-12-24T19:06:31.785Z,16.45
2022-12-24T19:09:00.836Z,15.10
2022-12-24T19:11:31.557Z,13.45
2022-12-24T19:13:59.210Z,11.85
2022-12-24T19:16:29.660Z,14.25
2022-12-24T19:18:57.674Z,13.00
2022-12-24T19:21:25.288Z,16.35
2022-12-24T19:23:53.085Z,14.27
2022-12-24T19:26:20.704Z,15.00
2022-12-24T19:28:48.876Z,14.90
2022-12-24T19:31:19.257Z,14.40
2022-12-24T19:33:49.420Z,15.30
2022-12-24T19:36:23.095Z,18.90
2022-12-24T19:38:50.502Z,19.52
2022-12-24T19:41:23.757Z,20.15
2022-12-24T19:43:54.523Z,16.35
2022-12-24T19:46:24.718Z,18.48
2022-12-24T19:48:54.425Z,16.15
2022-12-24T19:51:22.037Z,13.57
2022-12-24T19:53:49.921Z,14.70
2022-12-24T19:56:18.751Z,14.23
2022-12-24T19:58:46.360Z,15.02
2022-12-24T20:01:20.265Z,17.15
2022-12-24T20:03:48.422Z,16.70
2022-12-24T20:06:17.670Z,16.42
2022-12-24T20:08:45.082Z,14.00
2022-12-24T20:11:15.657Z,12.57
2022-12-24T20:13:42.906Z,12.45
2022-12-24T20:16:19.436Z,13.07
2022-12-24T20:18:55.294Z,14.45
2022-12-24T20:21:23.582Z,16.13
2022-12-24T20:23:51.282Z,14.88
2022-12-24T20:26:21.301Z,16.13
2022-12-24T20:28:48.849Z,14.18
2022-12-24T20:31:28.296Z,16.63
2022-12-24T20:33:57.540Z,17.13
2022-12-24T20:36:26.002Z,17.15
2022-12-24T20:38:53.592Z,14.35
2022-12-24T20:41:23.208Z,13.73
2022-12-24T20:43:52.269Z,14.68
2022-12-24T20:46:22.688Z,14.75
2022-12-24T20:48:51.923Z,14.80
2022-12-24T20:51:25.529Z,22.70
2022-12-24T20:53:59.017Z,18.87
2022-12-24T20:56:26.287Z,16.88
2022-12-24T20:58:54.050Z,15.93
2022-12-24T21:01:27.027Z,19.10
2022-12-24T21:03:55.456Z,18.15
2022-12-24T21:06:24.265Z,17.23
2022-12-24T21:08:52.931Z,16.13
2022-12-24T21:11:47.201Z,15.07
2022-12-24T21:14:14.921Z,13.93
2022-12-24T21:16:42.786Z,12.88
2022-12-24T21:19:14.141Z,13.00
2022-12-24T21:21:42.655Z,11.23
2022-12-24T21:24:10.389Z,10.45
2022-12-24T21:26:38.519Z,11.75
2022-12-24T21:29:08.235Z,11.20
2022-12-24T21:31:37.137Z,9.63
2022-12-24T21:34:04.301Z,8.80
2022-12-24T21:36:31.959Z,9.20
2022-12-24T21:38:59.088Z,9.38
2022-12-24T21:41:27.343Z,9.25
2022-12-24T21:43:55.158Z,9.15
2022-12-24T21:46:25.511Z,11.23
2022-12-24T21:49:13.337Z,9.55
2022-12-24T21:51:41.801Z,9.80
2022-12-24T21:54:24.038Z,9.80
2022-12-24T21:57:10.820Z,8.65
2022-12-24T21:59:38.248Z,10.90
2022-12-24T22:02:05.588Z,9.40
2022-12-24T22:04:33.590Z,10.65
2022-12-24T22:07:19.030Z,11.98
2022-12-24T22:10:05.118Z,10.13
2022-12-24T22:12:33.827Z,14.20
2022-12-24T22:15:01.456Z,14.00
2022-12-24T22:17:29.364Z,12.88
2022-12-24T22:19:57.243Z,11.68
2022-12-24T22:22:25.269Z,12.52
2022-12-24T22:24:52.412Z,11.98
2022-12-24T22:27:19.634Z,12.23
2022-12-24T22:29:46.962Z,13.40
2022-12-24T22:32:14.232Z,11.43
2022-12-24T22:34:41.367Z,16.02
2022-12-24T22:37:08.558Z,14.38
2022-12-24T22:39:35.657Z,14.48
2022-12-24T22:42:03.121Z,11.70
2022-12-24T22:44:30.304Z,10.90
2022-12-24T22:46:57.395Z,11.80
2022-12-24T22:49:24.526Z,12.90
2022-12-24T22:51:51.719Z,10.88
2022-12-24T22:54:18.885Z,12.23
2022-12-24T22:56:46.039Z,11.77
2022-12-24T22:59:14.215Z,12.88
2022-12-24T23:01:44.742Z,11.10
2022-12-24T23:04:12.797Z,10.95
2022-12-24T23:06:40.763Z,13.27
2022-12-24T23:09:09.918Z,14.07
2022-12-24T23:11:37.176Z,14.13
2022-12-24T23:14:22.889Z,15.82
2022-12-24T23:16:50.207Z,15.35
2022-12-24T23:19:17.387Z,20.58
2022-12-24T23:21:44.547Z,14.82
2022-12-24T23:24:11.672Z,17.58
2022-12-24T23:26:38.940Z,23.13
2022-12-24T23:29:06.763Z,20.15
2022-12-24T23:31:35.075Z,18.63
2022-12-24T23:34:02.586Z,17.40
2022-12-24T23:36:29.983Z,19.25
2022-12-24T23:38:57.816Z,20.60
2022-12-24T23:41:25.017Z,19.50
2022-12-24T23:43:52.283Z,22.85
2022-12-24T23:46:20.369Z,20.98
2022-12-24T23:48:53.547Z,18.83
2022-12-24T23:51:23.839Z,15.77
2022-12-24T23:53:56.773Z,16.38
2022-12-24T23:56:25.344Z,18.13
2022-12-24T23:58:52.710Z,18.02
